Relevés horaires Semmerzake (Belgique)


Relevés horaires à Semmerzake - Mercredi 29 Avr. 2026
Heure UTC1 Température [°C] Vent [km/h] Hum. [%] Pres.4 [hPa] Visi. [Km] Nébu. [octa] Préc.5 [mm] Cond.
2m. Res. Ros. Dir.2 Vit. Moy. Raf.3
23:00 12.7 12.3 -- ENE 7.4 -- 14.8 -- 1024.2(0.9/3h) >70 -- -- --
22:00 13.4 13.1 -- ENE 7.4 -- 13.0 -- 1024.2(1.4/3h) >70 -- -- --
21:00 14.1 13.9 -0.2 ENE 7.4 -- 16.7 37 1023.7(1.7/3h) >70 -- -- --
20:00 15.2 15.2 -1.2 ENE 7.4 -- 13.0 32 1023.3(1.2/3h) >70 -- -- --
19:00 16.6 16.6 -1.3 ENE 7.4 -- 16.7 29 1022.7(0.6/3h) >70 -- -- --
18:00 18.3 18.3 -1.0 ENE 9.3 -- 22.2 27 1022(-0.2/3h) >70 -- -- --
17:00 19.3 19.3 -1.0 ENE 9.3 -- 22.2 25 1022.1(-0.5/3h) >70 -- -- --
16:00 20.0 20.0 -0.6 ENE 13.0 -- 22.2 25 1022(-0.8/3h) >70 -- -- --
15:00 19.4 19.4 -1.9 E 13.0 -- 22.2 24 1022.2(-0.8/3h) >70 -- -- --
14:00 19.9 19.9 -2.2 ENE 11.1 -- 20.4 22 1022.6(-0.4/3h) >70 -- -- --
13:00 19.2 19.2 -2.1 ENE 13.0 -- 22.2 24 1022.8(0.1/3h) >70 -- -- --
12:00 18.8 18.8 -1.2 E 11.1 -- 24.1 26 1023.1(0.0/3h) >70 -- -- --
11:00 17.7 17.6 -0.7 ENE 13.0 -- 24.1 29 1023.1(-0.3/3h) >70 -- -- --
10:00 16.0 15.5 -0.7 ENE 13.0 -- 20.4 32 1022.8(0.0/3h) >70 -- -- --
09:00 14.6 14 -- ENE 11.1 -- 18.5 -- 1023.2(0.4/3h) >70 -- -- --
08:00 12.7 11.7 -0.7 ENE 11.1 -- 18.5 40 1023.5(0.6/3h) >70 -- -- --
07:00 11.2 10.2 -0.6 ENE 9.3 -- 16.7 44 1023.1(0.7/3h) >70 -- -- --
06:00 9.6 8.3 -0.7 ENE 9.3 -- 18.5 49 1023(0.8/3h) >70 -- -- --
05:00 9.1 7.7 -1.2 ENE 9.3 -- 18.5 48 1022.8(0.8/3h) >70 -- -- --
04:00 9.6 8.3 -1.4 ENE 9.3 -- 16.7 46 1022.3(0.4/3h) >70 -- -- --
03:00 10.3 9.1 -1.5 ENE 9.3 -- 16.7 44 1022.1(0.3/3h) >70 -- -- --
02:00 10.6 9.8 -1.1 ENE 7.4 -- 13.0 44 1021.8(0.4/3h) >70 -- -- --
01:00 11.4 10.8 -0.9 ENE 7.4 -- 14.8 42 1021.7(0.5/3h) >70 -- -- --
00:00 12.2 11.4 -0.6 ENE 9.3 -- 18.5 41 1021.7(0.8/3h) >70 -- -- --

1 Coordinated Universal Time. Actuellement il est 12:00 locale et 10:00 UTC.

2 Le vent souffle depuis la direction indiquée vers la direction oposée.

3 Les rafales max. sont disponible 40 min après l'heure du relevé.

4 Pour les stations d'altitude (plus de 600m) le géopotentiel du niveau le plus proche de la pression obligatoire est indiqué.

5 Les stations disposant d'un diffuseur peuvent indiquer "trace". Cela signifie que des précipitations ont touchés le sol mais que la quantité est inférieure à 0.1 mm.

Récapitulatif de la journée
Température [°C] Vent [km/h] Ensoleillement4 [h] Precipitations totale5 [mm] Pression [Hpa]
Min1 Max.2 Moy.3 Max. Min Max.
9.0 20.5 0 24.1 0 h 0 min 0 1021.7 1024.2

1 Température minimale relevée entre 18:00 UTC la veille et 18:00 UTC le jour donné.

2 Température maximale relevée entre 06:00 UTC le jour donné et 06:00 UTC le lendemain.

3 Vent moyen de la journée basé sur les relevés horaires.

4 Ensoleillement en heures relevé entre 06:00 UTC la veille et 06:00 UTC le jour donné.

5 Précipitations totales tombées entre 06:00 UTC la jour donné et 06:00 UTC le lendemain.

Graphiques horaires